sensor_id;sensor_type;location;lat;lon;timestamp;pressure;altitude;pressure_sealevel;temperature;humidity
39411;BME280;26579;43.238;23.124;2024-02-23T00:01:27;96561.94;;;12.60;39.87
39411;BME280;26579;43.238;23.124;2024-02-23T00:03:53;96563.34;;;12.54;39.07
39411;BME280;26579;43.238;23.124;2024-02-23T00:06:19;96563.06;;;12.57;39.52
39411;BME280;26579;43.238;23.124;2024-02-23T00:08:44;96548.63;;;12.53;39.69
39411;BME280;26579;43.238;23.124;2024-02-23T00:11:10;96555.06;;;12.59;39.80
39411;BME280;26579;43.238;23.124;2024-02-23T00:13:35;96553.25;;;12.41;39.97
39411;BME280;26579;43.238;23.124;2024-02-23T00:16:01;96545.88;;;12.55;39.94
39411;BME280;26579;43.238;23.124;2024-02-23T00:18:27;96552.91;;;12.54;40.10
39411;BME280;26579;43.238;23.124;2024-02-23T00:20:52;96536.03;;;12.49;40.60
39411;BME280;26579;43.238;23.124;2024-02-23T00:23:18;96542.66;;;12.43;40.94
39411;BME280;26579;43.238;23.124;2024-02-23T00:25:43;96540.34;;;12.40;41.14
39411;BME280;26579;43.238;23.124;2024-02-23T00:28:09;96528.81;;;12.33;40.54
39411;BME280;26579;43.238;23.124;2024-02-23T00:30:35;96538.84;;;12.37;40.46
39411;BME280;26579;43.238;23.124;2024-02-23T00:33:00;96520.28;;;12.40;40.11
39411;BME280;26579;43.238;23.124;2024-02-23T00:35:26;96523.19;;;12.37;40.36
39411;BME280;26579;43.238;23.124;2024-02-23T00:37:51;96527.44;;;12.38;39.90
39411;BME280;26579;43.238;23.124;2024-02-23T00:40:17;96529.69;;;12.51;39.33
39411;BME280;26579;43.238;23.124;2024-02-23T00:42:43;96513.94;;;12.43;39.15
39411;BME280;26579;43.238;23.124;2024-02-23T00:45:08;96513.06;;;12.52;39.31
39411;BME280;26579;43.238;23.124;2024-02-23T00:47:34;96526.84;;;12.44;40.50
39411;BME280;26579;43.238;23.124;2024-02-23T00:50:00;96527.00;;;12.15;40.81
39411;BME280;26579;43.238;23.124;2024-02-23T00:52:26;96531.41;;;12.15;40.31
39411;BME280;26579;43.238;23.124;2024-02-23T00:54:51;96537.06;;;12.10;39.68
39411;BME280;26579;43.238;23.124;2024-02-23T00:57:17;96534.81;;;12.15;41.05
39411;BME280;26579;43.238;23.124;2024-02-23T00:59:43;96538.28;;;12.16;40.52
39411;BME280;26579;43.238;23.124;2024-02-23T01:02:08;96542.06;;;12.21;41.24
39411;BME280;26579;43.238;23.124;2024-02-23T01:04:34;96537.84;;;12.20;40.10
39411;BME280;26579;43.238;23.124;2024-02-23T01:06:59;96537.44;;;12.15;41.50
39411;BME280;26579;43.238;23.124;2024-02-23T01:09:25;96527.84;;;11.78;41.97
39411;BME280;26579;43.238;23.124;2024-02-23T01:11:51;96539.50;;;11.84;41.86
39411;BME280;26579;43.238;23.124;2024-02-23T01:14:16;96521.81;;;11.68;42.78
39411;BME280;26579;43.238;23.124;2024-02-23T01:16:42;96543.47;;;11.78;42.82
39411;BME280;26579;43.238;23.124;2024-02-23T01:19:07;96531.31;;;11.69;42.62
39411;BME280;26579;43.238;23.124;2024-02-23T01:21:33;96528.31;;;11.54;43.16
39411;BME280;26579;43.238;23.124;2024-02-23T01:23:59;96516.56;;;11.31;44.58
39411;BME280;26579;43.238;23.124;2024-02-23T01:26:24;96520.16;;;11.20;44.94
39411;BME280;26579;43.238;23.124;2024-02-23T01:28:50;96516.34;;;11.15;44.67
39411;BME280;26579;43.238;23.124;2024-02-23T01:31:16;96510.72;;;11.09;45.02
39411;BME280;26579;43.238;23.124;2024-02-23T01:33:42;96509.63;;;10.93;44.99
39411;BME280;26579;43.238;23.124;2024-02-23T01:36:08;96521.69;;;11.03;44.86
39411;BME280;26579;43.238;23.124;2024-02-23T01:38:33;96509.88;;;10.99;44.65
39411;BME280;26579;43.238;23.124;2024-02-23T01:40:59;96508.53;;;10.95;45.03
39411;BME280;26579;43.238;23.124;2024-02-23T01:43:25;96520.16;;;11.10;44.61
39411;BME280;26579;43.238;23.124;2024-02-23T01:45:51;96512.06;;;11.14;44.13
39411;BME280;26579;43.238;23.124;2024-02-23T01:48:17;96503.69;;;11.20;43.08
39411;BME280;26579;43.238;23.124;2024-02-23T01:50:43;96517.13;;;11.35;43.49
39411;BME280;26579;43.238;23.124;2024-02-23T01:53:10;96500.69;;;11.15;43.99
39411;BME280;26579;43.238;23.124;2024-02-23T01:55:38;96508.91;;;11.20;43.71
39411;BME280;26579;43.238;23.124;2024-02-23T01:58:06;96512.84;;;11.33;43.80
39411;BME280;26579;43.238;23.124;2024-02-23T02:00:32;96516.88;;;11.18;45.48
39411;BME280;26579;43.238;23.124;2024-02-23T02:02:57;96516.34;;;11.15;45.27
39411;BME280;26579;43.238;23.124;2024-02-23T02:05:23;96519.59;;;11.17;44.75
39411;BME280;26579;43.238;23.124;2024-02-23T02:07:50;96519.06;;;11.23;44.03
39411;BME280;26579;43.238;23.124;2024-02-23T02:10:17;96520.16;;;11.10;44.55
39411;BME280;26579;43.238;23.124;2024-02-23T02:12:43;96511.81;;;10.87;46.34
39411;BME280;26579;43.238;23.124;2024-02-23T02:15:08;96503.44;;;10.64;46.57
39411;BME280;26579;43.238;23.124;2024-02-23T02:17:34;96529.47;;;10.55;47.20
39411;BME280;26579;43.238;23.124;2024-02-23T02:20:02;96516.84;;;10.40;47.46
39411;BME280;26579;43.238;23.124;2024-02-23T02:22:28;96498.38;;;10.43;47.55
39411;BME280;26579;43.238;23.124;2024-02-23T02:24:54;96525.53;;;10.51;47.43
39411;BME280;26579;43.238;23.124;2024-02-23T02:27:19;96531.28;;;10.54;46.72
39411;BME280;26579;43.238;23.124;2024-02-23T02:29:45;96531.16;;;10.65;45.60
39411;BME280;26579;43.238;23.124;2024-02-23T02:32:10;96530.31;;;10.65;46.51
39411;BME280;26579;43.238;23.124;2024-02-23T02:34:36;96508.38;;;10.38;46.51
39411;BME280;26579;43.238;23.124;2024-02-23T02:37:01;96506.44;;;10.31;47.13
39411;BME280;26579;43.238;23.124;2024-02-23T02:39:28;96523.19;;;10.48;46.99
39411;BME280;26579;43.238;23.124;2024-02-23T02:41:53;96532.09;;;10.55;46.41
39411;BME280;26579;43.238;23.124;2024-02-23T02:44:19;96521.66;;;10.45;46.64
39411;BME280;26579;43.238;23.124;2024-02-23T02:46:44;96524.41;;;10.43;46.81
39411;BME280;26579;43.238;23.124;2024-02-23T02:49:10;96502.28;;;10.18;47.75
39411;BME280;26579;43.238;23.124;2024-02-23T02:51:36;96529.97;;;10.29;47.02
39411;BME280;26579;43.238;23.124;2024-02-23T02:54:01;96522.88;;;10.31;47.78
39411;BME280;26579;43.238;23.124;2024-02-23T02:56:27;96506.72;;;10.28;47.42
39411;BME280;26579;43.238;23.124;2024-02-23T02:58:52;96510.94;;;10.29;47.13
39411;BME280;26579;43.238;23.124;2024-02-23T03:01:18;96522.22;;;10.39;46.96
39411;BME280;26579;43.238;23.124;2024-02-23T03:03:44;96525.91;;;10.36;47.03
39411;BME280;26579;43.238;23.124;2024-02-23T03:06:10;96523.91;;;10.19;47.53
39411;BME280;26579;43.238;23.124;2024-02-23T03:08:36;96520.50;;;10.18;47.48
39411;BME280;26579;43.238;23.124;2024-02-23T03:11:02;96523.66;;;10.22;47.76
39411;BME280;26579;43.238;23.124;2024-02-23T03:13:27;96520.09;;;10.23;47.28
39411;BME280;26579;43.238;23.124;2024-02-23T03:15:53;96515.16;;;10.20;47.85
39411;BME280;26579;43.238;23.124;2024-02-23T03:18:19;96510.59;;;10.03;48.28
39411;BME280;26579;43.238;23.124;2024-02-23T03:20:44;96527.72;;;10.15;47.70
39411;BME280;26579;43.238;23.124;2024-02-23T03:23:10;96520.34;;;10.20;47.10
39411;BME280;26579;43.238;23.124;2024-02-23T03:25:36;96525.38;;;10.12;47.97
39411;BME280;26579;43.238;23.124;2024-02-23T03:28:02;96519.25;;;10.13;47.75
39411;BME280;26579;43.238;23.124;2024-02-23T03:30:28;96508.56;;;10.16;46.16
39411;BME280;26579;43.238;23.124;2024-02-23T03:32:53;96522.75;;;10.42;44.71
39411;BME280;26579;43.238;23.124;2024-02-23T03:35:19;96523.34;;;10.65;45.12
39411;BME280;26579;43.238;23.124;2024-02-23T03:37:44;96525.78;;;10.67;44.77
39411;BME280;26579;43.238;23.124;2024-02-23T03:40:10;96509.63;;;10.63;44.35
39411;BME280;26579;43.238;23.124;2024-02-23T03:42:36;96521.69;;;10.84;44.25
39411;BME280;26579;43.238;23.124;2024-02-23T03:45:02;96519.91;;;10.94;43.90
39411;BME280;26579;43.238;23.124;2024-02-23T03:47:27;96522.78;;;11.01;44.10
39411;BME280;26579;43.238;23.124;2024-02-23T03:49:53;96517.56;;;11.01;43.96
39411;BME280;26579;43.238;23.124;2024-02-23T03:52:19;96520.44;;;11.07;43.79
39411;BME280;26579;43.238;23.124;2024-02-23T03:54:44;96500.97;;;11.02;44.08
39411;BME280;26579;43.238;23.124;2024-02-23T03:57:10;96522.50;;;11.14;44.16
39411;BME280;26579;43.238;23.124;2024-02-23T03:59:36;96523.59;;;11.21;44.56
39411;BME280;26579;43.238;23.124;2024-02-23T04:02:02;96522.06;;;11.28;44.65
39411;BME280;26579;43.238;23.124;2024-02-23T04:04:27;96528.66;;;11.32;44.29
39411;BME280;26579;43.238;23.124;2024-02-23T04:06:53;96528.63;;;11.42;44.04
39411;BME280;26579;43.238;23.124;2024-02-23T04:09:19;96534.91;;;11.49;43.88
39411;BME280;26579;43.238;23.124;2024-02-23T04:11:47;96505.56;;;11.47;43.58
39411;BME280;26579;43.238;23.124;2024-02-23T04:14:13;96508.38;;;11.63;44.21
39411;BME280;26579;43.238;23.124;2024-02-23T04:16:38;96507.19;;;11.48;44.08
39411;BME280;26579;43.238;23.124;2024-02-23T04:19:04;96519.28;;;11.39;44.00
39411;BME280;26579;43.238;23.124;2024-02-23T04:21:29;96521.88;;;11.49;43.72
39411;BME280;26579;43.238;23.124;2024-02-23T04:23:55;96525.88;;;11.43;44.23
39411;BME280;26579;43.238;23.124;2024-02-23T04:26:20;96513.69;;;11.34;44.69
39411;BME280;26579;43.238;23.124;2024-02-23T04:28:46;96496.00;;;11.28;44.74
39411;BME280;26579;43.238;23.124;2024-02-23T04:31:12;96518.09;;;11.24;45.38
39411;BME280;26579;43.238;23.124;2024-02-23T04:33:38;96519.59;;;11.26;44.81
39411;BME280;26579;43.238;23.124;2024-02-23T04:36:04;96516.59;;;11.21;44.94
39411;BME280;26579;43.238;23.124;2024-02-23T04:38:30;96520.16;;;11.10;45.07
39411;BME280;26579;43.238;23.124;2024-02-23T04:40:56;96514.41;;;11.07;45.71
39411;BME280;26579;43.238;23.124;2024-02-23T04:43:23;96517.41;;;11.02;46.33
39411;BME280;26579;43.238;23.124;2024-02-23T04:45:48;96504.28;;;11.04;46.16
39411;BME280;26579;43.238;23.124;2024-02-23T04:48:14;96504.41;;;10.93;45.58
39411;BME280;26579;43.238;23.124;2024-02-23T04:50:40;96505.81;;;10.97;45.45
39411;BME280;26579;43.238;23.124;2024-02-23T04:53:05;96523.47;;;10.83;45.87
39411;BME280;26579;43.238;23.124;2024-02-23T04:55:31;96518.13;;;10.75;46.50
39411;BME280;26579;43.238;23.124;2024-02-23T04:57:56;96500.59;;;10.68;47.03
39411;BME280;26579;43.238;23.124;2024-02-23T05:00:22;96502.09;;;10.51;48.06
39411;BME280;26579;43.238;23.124;2024-02-23T05:02:48;96499.63;;;10.59;45.43
39411;BME280;26579;43.238;23.124;2024-02-23T05:05:13;96508.00;;;10.62;46.00
39411;BME280;26579;43.238;23.124;2024-02-23T05:07:39;96496.34;;;10.67;44.96
39411;BME280;26579;43.238;23.124;2024-02-23T05:10:05;96507.84;;;10.64;42.50
39411;BME280;26579;43.238;23.124;2024-02-23T05:12:30;96501.56;;;10.76;40.82
39411;BME280;26579;43.238;23.124;2024-02-23T05:14:56;96509.91;;;10.90;41.78
39411;BME280;26579;43.238;23.124;2024-02-23T05:17:22;96510.88;;;10.88;41.41
39411;BME280;26579;43.238;23.124;2024-02-23T05:19:47;96492.09;;;10.85;42.80
39411;BME280;26579;43.238;23.124;2024-02-23T05:22:13;96510.59;;;10.92;42.12
39411;BME280;26579;43.238;23.124;2024-02-23T05:24:38;96506.59;;;10.87;41.56
39411;BME280;26579;43.238;23.124;2024-02-23T05:27:04;96506.88;;;10.84;43.35
39411;BME280;26579;43.238;23.124;2024-02-23T05:29:30;96510.06;;;10.88;42.80
39411;BME280;26579;43.238;23.124;2024-02-23T05:31:55;96510.59;;;10.92;42.91
39411;BME280;26579;43.238;23.124;2024-02-23T05:34:21;96508.81;;;10.82;42.43
39411;BME280;26579;43.238;23.124;2024-02-23T05:36:47;96510.06;;;10.88;41.06
39411;BME280;26579;43.238;23.124;2024-02-23T05:39:13;96522.09;;;10.99;42.66
39411;BME280;26579;43.238;23.124;2024-02-23T05:41:39;96504.28;;;10.94;41.21
39411;BME280;26579;43.238;23.124;2024-02-23T05:44:05;96511.97;;;11.05;41.19
39411;BME280;26579;43.238;23.124;2024-02-23T05:46:32;96506.56;;;11.17;41.16
39411;BME280;26579;43.238;23.124;2024-02-23T05:48:57;96506.97;;;11.22;37.70
39411;BME280;26579;43.238;23.124;2024-02-23T05:51:23;96511.75;;;11.36;37.88
39411;BME280;26579;43.238;23.124;2024-02-23T05:53:49;96521.34;;;11.45;38.35
39411;BME280;26579;43.238;23.124;2024-02-23T05:56:14;96510.47;;;11.60;38.64
39411;BME280;26579;43.238;23.124;2024-02-23T05:58:40;96508.66;;;11.60;39.74
39411;BME280;26579;43.238;23.124;2024-02-23T06:01:05;96517.03;;;11.64;38.96
39411;BME280;26579;43.238;23.124;2024-02-23T06:03:31;96500.75;;;11.52;39.05
39411;BME280;26579;43.238;23.124;2024-02-23T06:05:57;96527.03;;;11.68;38.81
39411;BME280;26579;43.238;23.124;2024-02-23T06:08:22;96525.34;;;11.77;39.68
39411;BME280;26579;43.238;23.124;2024-02-23T06:10:48;96510.28;;;11.71;38.24
39411;BME280;26579;43.238;23.124;2024-02-23T06:13:13;96520.84;;;11.79;39.22
39411;BME280;26579;43.238;23.124;2024-02-23T06:15:39;96529.06;;;11.74;38.23
39411;BME280;26579;43.238;23.124;2024-02-23T06:18:05;96525.22;;;11.88;39.20
39411;BME280;26579;43.238;23.124;2024-02-23T06:20:30;96511.44;;;12.51;38.76
39411;BME280;26579;43.238;23.124;2024-02-23T06:22:56;96538.50;;;13.40;36.10
39411;BME280;26579;43.238;23.124;2024-02-23T06:25:22;96511.22;;;14.53;33.56
39411;BME280;26579;43.238;23.124;2024-02-23T06:27:47;96518.47;;;15.66;31.97
39411;BME280;26579;43.238;23.124;2024-02-23T06:30:13;96510.88;;;17.12;29.16
39411;BME280;26579;43.238;23.124;2024-02-23T06:32:39;96520.53;;;18.17;27.96
39411;BME280;26579;43.238;23.124;2024-02-23T06:35:05;96514.34;;;18.75;27.03
39411;BME280;26579;43.238;23.124;2024-02-23T06:37:30;96509.72;;;19.70;26.23
39411;BME280;26579;43.238;23.124;2024-02-23T06:39:56;96526.75;;;20.92;25.12
39411;BME280;26579;43.238;23.124;2024-02-23T06:42:21;96512.56;;;21.59;23.24
39411;BME280;26579;43.238;23.124;2024-02-23T06:44:47;96518.03;;;21.38;23.95
39411;BME280;26579;43.238;23.124;2024-02-23T06:47:13;96517.56;;;20.88;23.96
39411;BME280;26579;43.238;23.124;2024-02-23T06:49:42;96499.28;;;21.13;23.14
39411;BME280;26579;43.238;23.124;2024-02-23T06:52:07;96508.22;;;20.30;23.13
39411;BME280;26579;43.238;23.124;2024-02-23T06:54:33;96490.69;;;21.90;22.45
39411;BME280;26579;43.238;23.124;2024-02-23T06:56:58;96514.88;;;22.07;21.75
39411;BME280;26579;43.238;23.124;2024-02-23T06:59:24;96507.22;;;22.96;22.35
39411;BME280;26579;43.238;23.124;2024-02-23T07:01:50;96521.16;;;23.41;21.30
39411;BME280;26579;43.238;23.124;2024-02-23T07:04:17;96513.75;;;23.25;20.96
39411;BME280;26579;43.238;23.124;2024-02-23T07:06:43;96526.72;;;22.70;22.06
39411;BME280;26579;43.238;23.124;2024-02-23T07:09:09;96514.97;;;22.52;22.73
39411;BME280;26579;43.238;23.124;2024-02-23T07:11:34;96517.91;;;22.31;24.67
39411;BME280;26579;43.238;23.124;2024-02-23T07:14:00;96517.53;;;22.14;22.26
39411;BME280;26579;43.238;23.124;2024-02-23T07:16:25;96540.50;;;23.30;21.89
39411;BME280;26579;43.238;23.124;2024-02-23T07:18:51;96508.78;;;24.22;20.60
39411;BME280;26579;43.238;23.124;2024-02-23T07:21:17;96523.88;;;25.61;18.91
39411;BME280;26579;43.238;23.124;2024-02-23T07:23:43;96513.63;;;27.09;17.72
39411;BME280;26579;43.238;23.124;2024-02-23T07:26:09;96525.84;;;26.36;18.27
39411;BME280;26579;43.238;23.124;2024-02-23T07:28:34;96504.91;;;24.00;19.77
39411;BME280;26579;43.238;23.124;2024-02-23T07:31:00;96498.84;;;24.66;19.80
39411;BME280;26579;43.238;23.124;2024-02-23T07:33:26;96518.28;;;24.97;20.28
39411;BME280;26579;43.238;23.124;2024-02-23T07:35:51;96513.34;;;25.54;18.67
39411;BME280;26579;43.238;23.124;2024-02-23T07:38:17;96513.22;;;25.49;19.23
39411;BME280;26579;43.238;23.124;2024-02-23T07:40:42;96518.47;;;24.53;19.80
39411;BME280;26579;43.238;23.124;2024-02-23T07:43:08;96502.34;;;24.11;20.69
39411;BME280;26579;43.238;23.124;2024-02-23T07:45:34;96516.00;;;24.52;19.93
39411;BME280;26579;43.238;23.124;2024-02-23T07:47:59;96500.78;;;24.22;20.14
39411;BME280;26579;43.238;23.124;2024-02-23T07:50:25;96500.34;;;23.63;20.85
39411;BME280;26579;43.238;23.124;2024-02-23T07:52:51;96510.88;;;22.95;21.54
39411;BME280;26579;43.238;23.124;2024-02-23T07:55:16;96513.34;;;21.66;22.73
39411;BME280;26579;43.238;23.124;2024-02-23T07:57:42;96505.28;;;22.13;23.37
39411;BME280;26579;43.238;23.124;2024-02-23T08:00:08;96515.13;;;22.06;22.37
39411;BME280;26579;43.238;23.124;2024-02-23T08:02:39;96517.03;;;21.59;23.25
39411;BME280;26579;43.238;23.124;2024-02-23T08:05:06;96503.22;;;22.35;23.23
39411;BME280;26579;43.238;23.124;2024-02-23T08:07:32;96503.03;;;22.75;22.28
39411;BME280;26579;43.238;23.124;2024-02-23T08:09:58;96502.50;;;22.98;22.30
39411;BME280;26579;43.238;23.124;2024-02-23T08:12:24;96498.34;;;22.70;22.71
39411;BME280;26579;43.238;23.124;2024-02-23T08:14:58;96508.34;;;22.30;23.10
39411;BME280;26579;43.238;23.124;2024-02-23T08:17:24;96517.84;;;21.59;23.69
39411;BME280;26579;43.238;23.124;2024-02-23T08:19:50;96518.41;;;21.35;23.64
39411;BME280;26579;43.238;23.124;2024-02-23T08:22:15;96545.72;;;21.88;23.89
39411;BME280;26579;43.238;23.124;2024-02-23T08:24:41;96518.78;;;22.70;21.40
39411;BME280;26579;43.238;23.124;2024-02-23T08:27:06;96531.81;;;22.71;21.85
39411;BME280;26579;43.238;23.124;2024-02-23T08:29:32;96514.41;;;22.82;21.29
39411;BME280;26579;43.238;23.124;2024-02-23T08:31:58;96521.00;;;20.88;23.39
39411;BME280;26579;43.238;23.124;2024-02-23T08:34:23;96513.59;;;19.74;25.20
39411;BME280;26579;43.238;23.124;2024-02-23T08:36:49;96503.72;;;19.33;25.90
39411;BME280;26579;43.238;23.124;2024-02-23T08:39:15;96522.47;;;18.95;26.89
39411;BME280;26579;43.238;23.124;2024-02-23T08:41:40;96518.69;;;18.32;26.76
39411;BME280;26579;43.238;23.124;2024-02-23T08:44:06;96519.81;;;17.78;26.73
39411;BME280;26579;43.238;23.124;2024-02-23T08:46:31;96514.59;;;17.55;27.75
39411;BME280;26579;43.238;23.124;2024-02-23T08:48:57;96537.63;;;17.53;28.69
39411;BME280;26579;43.238;23.124;2024-02-23T08:51:26;96536.22;;;18.40;28.90
39411;BME280;26579;43.238;23.124;2024-02-23T08:53:52;96532.63;;;19.98;26.54
39411;BME280;26579;43.238;23.124;2024-02-23T08:56:18;96524.72;;;21.20;24.87
39411;BME280;26579;43.238;23.124;2024-02-23T08:58:44;96520.19;;;22.14;22.90
39411;BME280;26579;43.238;23.124;2024-02-23T09:01:09;96524.50;;;23.05;22.15
39411;BME280;26579;43.238;23.124;2024-02-23T09:03:35;96528.34;;;23.16;21.35
39411;BME280;26579;43.238;23.124;2024-02-23T09:06:01;96526.84;;;23.77;20.25
39411;BME280;26579;43.238;23.124;2024-02-23T09:08:26;96520.81;;;24.25;20.89
39411;BME280;26579;43.238;23.124;2024-02-23T09:10:52;96538.78;;;24.29;20.94
39411;BME280;26579;43.238;23.124;2024-02-23T09:13:18;96536.38;;;23.84;20.92
39411;BME280;26579;43.238;23.124;2024-02-23T09:15:44;96535.00;;;24.00;21.12
39411;BME280;26579;43.238;23.124;2024-02-23T09:18:09;96534.88;;;24.50;21.41
39411;BME280;26579;43.238;23.124;2024-02-23T09:20:35;96537.09;;;24.53;20.81
39411;BME280;26579;43.238;23.124;2024-02-23T09:23:01;96539.81;;;24.65;20.46
39411;BME280;26579;43.238;23.124;2024-02-23T09:25:26;96544.31;;;24.95;20.76
39411;BME280;26579;43.238;23.124;2024-02-23T09:27:52;96532.47;;;24.79;20.36
39411;BME280;26579;43.238;23.124;2024-02-23T09:30:21;96517.63;;;24.71;21.02
39411;BME280;26579;43.238;23.124;2024-02-23T09:32:47;96513.75;;;25.27;20.82
39411;BME280;26579;43.238;23.124;2024-02-23T09:35:12;96525.50;;;24.48;21.26
39411;BME280;26579;43.238;23.124;2024-02-23T09:37:38;96532.53;;;25.33;20.91
39411;BME280;26579;43.238;23.124;2024-02-23T09:40:04;96530.03;;;24.77;20.95
39411;BME280;26579;43.238;23.124;2024-02-23T09:42:30;96533.53;;;22.97;22.76
39411;BME280;26579;43.238;23.124;2024-02-23T09:45:00;96540.63;;;21.67;25.38
39411;BME280;26579;43.238;23.124;2024-02-23T09:47:29;96529.16;;;20.87;25.70
39411;BME280;26579;43.238;23.124;2024-02-23T09:49:55;96520.47;;;20.03;27.25
39411;BME280;26579;43.238;23.124;2024-02-23T09:52:21;96528.84;;;19.51;28.43
39411;BME280;26579;43.238;23.124;2024-02-23T09:54:47;96530.81;;;19.20;27.94
39411;BME280;26579;43.238;23.124;2024-02-23T09:57:14;96532.53;;;18.85;28.70
39411;BME280;26579;43.238;23.124;2024-02-23T09:59:41;96530.97;;;18.40;28.94
39411;BME280;26579;43.238;23.124;2024-02-23T10:02:14;96540.06;;;18.22;29.63
39411;BME280;26579;43.238;23.124;2024-02-23T10:04:41;96513.16;;;17.68;30.39
39411;BME280;26579;43.238;23.124;2024-02-23T10:07:07;96525.22;;;17.62;30.32
39411;BME280;26579;43.238;23.124;2024-02-23T10:09:33;96541.47;;;17.28;31.05
39411;BME280;26579;43.238;23.124;2024-02-23T10:11:59;96529.63;;;17.32;31.13
39411;BME280;26579;43.238;23.124;2024-02-23T10:14:24;96565.28;;;17.34;31.24
39411;BME280;26579;43.238;23.124;2024-02-23T10:16:50;96531.09;;;17.11;31.80
39411;BME280;26579;43.238;23.124;2024-02-23T10:19:15;96529.78;;;17.07;31.88
39411;BME280;26579;43.238;23.124;2024-02-23T10:21:41;96541.81;;;17.25;32.15
39411;BME280;26579;43.238;23.124;2024-02-23T10:24:07;96535.72;;;17.09;31.60
39411;BME280;26579;43.238;23.124;2024-02-23T10:26:32;96535.72;;;17.09;32.06
39411;BME280;26579;43.238;23.124;2024-02-23T10:28:58;96531.75;;;16.90;31.92
39411;BME280;26579;43.238;23.124;2024-02-23T10:31:24;96526.69;;;16.81;32.00
39411;BME280;26579;43.238;23.124;2024-02-23T10:33:50;96531.44;;;16.85;31.85
39411;BME280;26579;43.238;23.124;2024-02-23T10:36:17;96531.50;;;17.00;31.77
39411;BME280;26579;43.238;23.124;2024-02-23T10:38:45;96523.78;;;16.98;32.32
39411;BME280;26579;43.238;23.124;2024-02-23T10:41:13;96524.53;;;17.07;32.61
39411;BME280;26579;43.238;23.124;2024-02-23T10:43:48;96519.38;;;16.99;32.20
39411;BME280;26579;43.238;23.124;2024-02-23T10:46:14;96537.88;;;17.06;31.87
39411;BME280;26579;43.238;23.124;2024-02-23T10:48:44;96532.38;;;17.15;32.35
39411;BME280;26579;43.238;23.124;2024-02-23T10:51:14;96533.31;;;17.23;32.93
39411;BME280;26579;43.238;23.124;2024-02-23T10:53:40;96514.31;;;17.12;32.66
39411;BME280;26579;43.238;23.124;2024-02-23T10:56:07;96526.00;;;16.87;32.27
39411;BME280;26579;43.238;23.124;2024-02-23T10:58:33;96518.59;;;16.90;32.67
39411;BME280;26579;43.238;23.124;2024-02-23T11:01:05;96508.09;;;16.90;32.57
39411;BME280;26579;43.238;23.124;2024-02-23T11:03:33;96488.94;;;16.73;33.05
39411;BME280;26579;43.238;23.124;2024-02-23T11:06:00;96508.00;;;16.98;32.62
39411;BME280;26579;43.238;23.124;2024-02-23T11:08:29;96515.97;;;17.13;33.08
39411;BME280;26579;43.238;23.124;2024-02-23T11:10:55;96499.94;;;17.23;32.67
39411;BME280;26579;43.238;23.124;2024-02-23T11:13:36;96494.38;;;17.18;32.37
39411;BME280;26579;43.238;23.124;2024-02-23T11:16:03;96495.19;;;17.18;32.74
39411;BME280;26579;43.238;23.124;2024-02-23T11:18:30;96500.50;;;17.10;32.62
39411;BME280;26579;43.238;23.124;2024-02-23T11:20:59;96484.22;;;17.15;32.65
39411;BME280;26579;43.238;23.124;2024-02-23T11:23:24;96489.81;;;17.64;33.23
39411;BME280;26579;43.238;23.124;2024-02-23T11:28:28;96490.34;;;18.34;31.28
39411;BME280;26579;43.238;23.124;2024-02-23T11:30:54;96483.91;;;18.94;30.90
39411;BME280;26579;43.238;23.124;2024-02-23T11:33:27;96480.53;;;19.00;30.48
39411;BME280;26579;43.238;23.124;2024-02-23T11:35:53;96478.00;;;19.42;29.71
39411;BME280;26579;43.238;23.124;2024-02-23T11:38:30;96476.53;;;19.61;29.30
39411;BME280;26579;43.238;23.124;2024-02-23T11:40:57;96474.44;;;19.56;29.43
39411;BME280;26579;43.238;23.124;2024-02-23T11:43:23;96475.22;;;19.50;28.86
39411;BME280;26579;43.238;23.124;2024-02-23T11:45:50;96472.41;;;19.86;29.26
39411;BME280;26579;43.238;23.124;2024-02-23T11:48:16;96465.94;;;19.89;28.66
39411;BME280;26579;43.238;23.124;2024-02-23T11:50:42;96460.41;;;20.25;28.30
39411;BME280;26579;43.238;23.124;2024-02-23T11:53:09;96469.28;;;20.59;27.65
39411;BME280;26579;43.238;23.124;2024-02-23T11:55:35;96464.44;;;20.76;27.97
39411;BME280;26579;43.238;23.124;2024-02-23T11:58:01;96451.81;;;20.71;27.19
39411;BME280;26579;43.238;23.124;2024-02-23T12:00:27;96459.56;;;20.93;26.93
39411;BME280;26579;43.238;23.124;2024-02-23T12:02:52;96464.66;;;21.14;26.88
39411;BME280;26579;43.238;23.124;2024-02-23T12:05:18;96455.28;;;20.85;26.00
39411;BME280;26579;43.238;23.124;2024-02-23T12:07:44;96447.78;;;20.89;26.30
39411;BME280;26579;43.238;23.124;2024-02-23T12:10:09;96446.75;;;21.10;26.50
39411;BME280;26579;43.238;23.124;2024-02-23T12:12:35;96459.97;;;20.96;26.29
39411;BME280;26579;43.238;23.124;2024-02-23T12:15:01;96448.16;;;20.99;26.12
39411;BME280;26579;43.238;23.124;2024-02-23T12:17:27;96448.56;;;21.22;25.84
39411;BME280;26579;43.238;23.124;2024-02-23T12:20:02;96442.69;;;21.47;25.37
39411;BME280;26579;43.238;23.124;2024-02-23T12:22:28;96436.78;;;21.45;25.92
39411;BME280;26579;43.238;23.124;2024-02-23T12:24:57;96429.06;;;21.03;26.43
39411;BME280;26579;43.238;23.124;2024-02-23T12:27:23;96433.72;;;20.95;26.02
39411;BME280;26579;43.238;23.124;2024-02-23T12:29:52;96437.53;;;20.59;26.85
39411;BME280;26579;43.238;23.124;2024-02-23T12:32:22;96438.41;;;20.11;27.09
39411;BME280;26579;43.238;23.124;2024-02-23T12:34:48;96435.81;;;19.77;27.74
39411;BME280;26579;43.238;23.124;2024-02-23T12:37:15;96432.59;;;19.53;28.39
39411;BME280;26579;43.238;23.124;2024-02-23T12:39:41;96426.19;;;19.69;28.45
39411;BME280;26579;43.238;23.124;2024-02-23T12:42:06;96425.38;;;20.10;27.48
39411;BME280;26579;43.238;23.124;2024-02-23T12:44:32;96420.78;;;20.39;27.04
39411;BME280;26579;43.238;23.124;2024-02-23T12:46:58;96424.31;;;20.59;26.71